Zagreb — 9AA5910 — position and weather

sailwx.info

Track history (hours):
 
Tides and Currents Weather Stations Pressure Air Temp Water Temp Dewpoint Dewpoint Depression Visibility Wind Speed Wind Dir Waves Ship Positions

Zagreb

Last reported at 2015-Mar-29 21:19 UTC. Time now 2015-Mar-31 00:20 UTC.
Position N 57°50' E 010°16'.

Length 229 m; draft 13.6 m.

Type: Cargo ship. MMSI: 238249000.

Date/timePositionNaut miles runAvg speedWind from/ knotsBaromVisibWave heightAir tempDewpointWater temp
2015-Mar-29 21:19N 57°50' E 010°16'912.0
2015-Mar-29 20:33N 57°50' E 010°33'1010.4
2015-Mar-29 19:33N 57°45' E 010°51'1211.6
2015-Mar-29 18:33N 57°38' E 011°07'1312.7
2015-Mar-29 17:33N 57°29' E 011°24'1212.0
2015-Mar-29 16:33N 57°18' E 011°32'1211.7
2015-Mar-29 15:33N 57°07' E 011°40'1212.2
2015-Mar-29 14:33N 56°55' E 011°47'1111.2
2015-Mar-29 13:33N 56°44' E 011°53'1212.1
2015-Mar-29 12:33N 56°34' E 011°41'11811.2
2015-Mar-29 02:04N 54°40' E 010°49'612.0
2015-Mar-29 01:33N 54°37' E 010°59'10 9.5
2015-Mar-29 00:34N 54°35' E 011°15'1212.2
2015-Mar-28 23:33N 54°29' E 011°34'1212.2
2015-Mar-28 22:33N 54°26' E 011°54'1111.1
2015-Mar-28 21:33N 54°29' E 012°12'1010.0
2015-Mar-28 20:34N 54°38' E 012°20'7 6.7
2015-Mar-28 19:33N 54°41' E 012°30'10 7.2
2015-Mar-28 18:13N 54°47' E 012°44'1911.6
2015-Mar-28 16:33N 54°54' E 013°15'1211.9
2015-Mar-28 15:33N 54°58' E 013°34'1211.5
2015-Mar-28 14:34N 55°02' E 013°53'1111.0
2015-Mar-28 13:34N 55°08' E 014°09'1211.7
2015-Mar-28 12:34N 55°17' E 014°22'1211.5
2015-Mar-28 11:33N 55°26' E 014°35'1211.6
2015-Mar-28 10:34N 55°31' E 014°53'1211.5
2015-Mar-28 09:33N 55°36' E 015°11'1511.4
2015-Mar-28 08:15N 55°41' E 015°36'33911.2
2015-Mar-27 02:08N 59°37' E 023°11'712.6
2015-Mar-27 01:33N 59°39' E 023°25'1212.5
2015-Mar-27 00:34N 59°42' E 023°49'1412.3
2015-Mar-26 23:24N 59°46' E 024°16'1012.2
2015-Mar-26 22:33N 59°48' E 024°36'4012.2
2015-Mar-26 19:18N 59°56' E 025°54'1112.2
2015-Mar-26 18:27N 59°59' E 026°14'1112.2
2015-Mar-26 17:33N 60°02' E 026°35'1312.5
2015-Mar-26 16:33N 59°59' E 026°59'1211.9
2015-Mar-26 15:34N 60°05' E 027°21'  
2015-Mar-24 02:28N 60°06' E 027°29'1613.1
2015-Mar-24 01:14N 59°58' E 027°01'913.4
2015-Mar-24 00:32N 59°59' E 026°42'5913.4
2015-Mar-23 20:09N 59°46' E 024°47'813.7
2015-Mar-23 19:34N 59°44' E 024°32'1713.6
2015-Mar-23 18:19N 59°39' E 023°60'36213.4
2015-Mar-22 15:19N 55°40' E 015°32'1114.1
2015-Mar-22 14:33N 55°35' E 015°15'1414.2
2015-Mar-22 13:33N 55°28' E 014°53'1414.3
2015-Mar-22 12:33N 55°20' E 014°33'1414.0
2015-Mar-22 11:33N 55°10' E 014°15'1413.8
2015-Mar-22 10:33N 55°10' E 013°51'1514.0
2015-Mar-22 09:29N 55°11' E 013°24'1313.6
2015-Mar-22 08:33N 55°12' E 013°02'1414.0
2015-Mar-22 07:33N 55°17' E 012°40'1313.2
2015-Mar-22 06:33N 55°31' E 012°41'10 9.7
2015-Mar-22 05:33N 55°40' E 012°41'1110.7
2015-Mar-22 04:33N 55°51' E 012°41'1010.3
2015-Mar-22 03:33N 56°01' E 012°40'1010.0
2015-Mar-22 02:33N 56°09' E 012°27'1312.7
2015-Mar-22 01:33N 56°16' E 012°08'1412.6
2015-Mar-22 00:26N 56°29' E 011°58'1213.2
2015-Mar-21 23:33N 56°40' E 011°54'1312.6
2015-Mar-21 22:33N 56°52' E 011°48'1312.7
2015-Mar-21 21:32N 57°04' E 011°40'1312.9
2015-Mar-21 20:33N 57°16' E 011°31'1313.2
2015-Mar-21 19:33N 57°29' E 011°23'1313.0
2015-Mar-21 18:32N 57°37' E 011°04'1212.7
2015-Mar-21 17:33N 57°46' E 010°47'27111.2
2015-Mar-20 17:13N 54°27' E 005°15'913.7
2015-Mar-20 16:33N 54°19' E 005°07'1413.7
2015-Mar-20 15:33N 54°07' E 004°57'1413.0
2015-Mar-20 14:30N 53°57' E 004°42'9712.1
2015-Mar-20 06:30N 52°36' E 003°12'1212.9
2015-Mar-20 05:33N 52°24' E 003°10'1413.7
2015-Mar-20 04:33N 52°10' E 003°08'2114.1
2015-Mar-20 03:04N 51°50' E 003°05'713.5
2015-Mar-20 02:32N 51°45' E 003°14'1212.7
2015-Mar-20 01:33N 51°35' E 003°24'1111.2
2015-Mar-20 00:33N 51°26' E 003°36'7 7.0
2015-Mar-19 23:33N 51°22' E 003°45'9 8.9
2015-Mar-19 22:33N 51°26' E 003°58'8 7.7
2015-Mar-19 21:33N 51°23' E 004°10'  
Track history (hours):
 
Tides and Currents Weather Stations Pressure Air Temp Water Temp Dewpoint Dewpoint Depression Visibility Wind Speed Wind Dir Waves Ship Positions

Zagreb

Last reported at 2015-Mar-29 21:19 UTC. Time now 2015-Mar-31 00:20 UTC.
Position N 57°50' E 010°16'.

Length 229 m; draft 13.6 m.

Type: Cargo ship. MMSI: 238249000.

Date/timePositionNaut miles runAvg speedWind from/ knotsBaromVisibWave heightAir tempDewpointWater temp
2015-Mar-29 21:19N 57°50' E 010°16'912.0
2015-Mar-29 20:33N 57°50' E 010°33'1010.4
2015-Mar-29 19:33N 57°45' E 010°51'1211.6
2015-Mar-29 18:33N 57°38' E 011°07'1312.7
2015-Mar-29 17:33N 57°29' E 011°24'1212.0
2015-Mar-29 16:33N 57°18' E 011°32'1211.7
2015-Mar-29 15:33N 57°07' E 011°40'1212.2
2015-Mar-29 14:33N 56°55' E 011°47'1111.2
2015-Mar-29 13:33N 56°44' E 011°53'1212.1
2015-Mar-29 12:33N 56°34' E 011°41'11811.2
2015-Mar-29 02:04N 54°40' E 010°49'612.0
2015-Mar-29 01:33N 54°37' E 010°59'10 9.5
2015-Mar-29 00:34N 54°35' E 011°15'1212.2
2015-Mar-28 23:33N 54°29' E 011°34'1212.2
2015-Mar-28 22:33N 54°26' E 011°54'1111.1
2015-Mar-28 21:33N 54°29' E 012°12'1010.0
2015-Mar-28 20:34N 54°38' E 012°20'7 6.7
2015-Mar-28 19:33N 54°41' E 012°30'10 7.2
2015-Mar-28 18:13N 54°47' E 012°44'1911.6
2015-Mar-28 16:33N 54°54' E 013°15'1211.9
2015-Mar-28 15:33N 54°58' E 013°34'1211.5
2015-Mar-28 14:34N 55°02' E 013°53'1111.0
2015-Mar-28 13:34N 55°08' E 014°09'1211.7
2015-Mar-28 12:34N 55°17' E 014°22'1211.5
2015-Mar-28 11:33N 55°26' E 014°35'1211.6
2015-Mar-28 10:34N 55°31' E 014°53'1211.5
2015-Mar-28 09:33N 55°36' E 015°11'1511.4
2015-Mar-28 08:15N 55°41' E 015°36'33911.2
2015-Mar-27 02:08N 59°37' E 023°11'712.6
2015-Mar-27 01:33N 59°39' E 023°25'1212.5
2015-Mar-27 00:34N 59°42' E 023°49'1412.3
2015-Mar-26 23:24N 59°46' E 024°16'1012.2
2015-Mar-26 22:33N 59°48' E 024°36'4012.2
2015-Mar-26 19:18N 59°56' E 025°54'1112.2
2015-Mar-26 18:27N 59°59' E 026°14'1112.2
2015-Mar-26 17:33N 60°02' E 026°35'1312.5
2015-Mar-26 16:33N 59°59' E 026°59'1211.9
2015-Mar-26 15:34N 60°05' E 027°21'  
2015-Mar-24 02:28N 60°06' E 027°29'1613.1
2015-Mar-24 01:14N 59°58' E 027°01'913.4
2015-Mar-24 00:32N 59°59' E 026°42'5913.4
2015-Mar-23 20:09N 59°46' E 024°47'813.7
2015-Mar-23 19:34N 59°44' E 024°32'1713.6
2015-Mar-23 18:19N 59°39' E 023°60'36213.4
2015-Mar-22 15:19N 55°40' E 015°32'1114.1
2015-Mar-22 14:33N 55°35' E 015°15'1414.2
2015-Mar-22 13:33N 55°28' E 014°53'1414.3
2015-Mar-22 12:33N 55°20' E 014°33'1414.0
2015-Mar-22 11:33N 55°10' E 014°15'1413.8
2015-Mar-22 10:33N 55°10' E 013°51'1514.0
2015-Mar-22 09:29N 55°11' E 013°24'1313.6
2015-Mar-22 08:33N 55°12' E 013°02'1414.0
2015-Mar-22 07:33N 55°17' E 012°40'1313.2
2015-Mar-22 06:33N 55°31' E 012°41'10 9.7
2015-Mar-22 05:33N 55°40' E 012°41'1110.7
2015-Mar-22 04:33N 55°51' E 012°41'1010.3
2015-Mar-22 03:33N 56°01' E 012°40'1010.0
2015-Mar-22 02:33N 56°09' E 012°27'1312.7
2015-Mar-22 01:33N 56°16' E 012°08'1412.6
2015-Mar-22 00:26N 56°29' E 011°58'1213.2
2015-Mar-21 23:33N 56°40' E 011°54'1312.6
2015-Mar-21 22:33N 56°52' E 011°48'1312.7
2015-Mar-21 21:32N 57°04' E 011°40'1312.9
2015-Mar-21 20:33N 57°16' E 011°31'1313.2
2015-Mar-21 19:33N 57°29' E 011°23'1313.0
2015-Mar-21 18:32N 57°37' E 011°04'1212.7
2015-Mar-21 17:33N 57°46' E 010°47'27111.2
2015-Mar-20 17:13N 54°27' E 005°15'913.7
2015-Mar-20 16:33N 54°19' E 005°07'1413.7
2015-Mar-20 15:33N 54°07' E 004°57'1413.0
2015-Mar-20 14:30N 53°57' E 004°42'9712.1
2015-Mar-20 06:30N 52°36' E 003°12'1212.9
2015-Mar-20 05:33N 52°24' E 003°10'1413.7
2015-Mar-20 04:33N 52°10' E 003°08'2114.1
2015-Mar-20 03:04N 51°50' E 003°05'713.5
2015-Mar-20 02:32N 51°45' E 003°14'1212.7
2015-Mar-20 01:33N 51°35' E 003°24'1111.2
2015-Mar-20 00:33N 51°26' E 003°36'7 7.0
2015-Mar-19 23:33N 51°22' E 003°45'9 8.9
2015-Mar-19 22:33N 51°26' E 003°58'8 7.7
2015-Mar-19 21:33N 51°23' E 004°10'  

Dump ship's entire track history